Date,TemperatureHighF,TemperatureAvgF,TemperatureLowF,DewpointHighF,DewpointAvgF,DewpointLowF,HumidityHigh,HumidityAvg,HumidityLow,PressureMaxIn,PressureMinIn,WindSpeedMaxMPH,WindSpeedAvgMPH,GustSpeedMaxMPH,PrecipitationSumIn
2013-1-1,41.0,36.7,28.0,27.0,21.5,3.0,60,52,42,29.98,29.81,16,11,27,0.00
2013-1-2,30.0,27.5,23.0,14.0,9.2,3.0,54,45,35,30.15,29.97,17,10,23,0.00
2013-1-3,30.0,25.2,19.0,16.0,10.4,3.0,68,53,48,30.19,30.06,15,7,22,0.00
2013-1-4,37.0,32.9,25.0,21.0,18.8,14.0,68,56,47,30.07,29.92,17,-13,25,0.00
2013-1-5,43.0,34.0,21.0,21.0,18.5,14.0,73,54,41,30.28,29.96,15,-22,23,0.00
2013-1-6,45.0,35.3,25.0,36.0,27.9,18.0,86,75,60,30.23,29.98,16,4,30,0.00
2013-1-7,45.0,35.4,19.0,30.0,23.1,12.0,80,62,41,30.42,30.02,16,4,21,0.00
2013-1-8,46.0,38.1,19.0,37.0,29.7,12.0,86,71,52,30.45,30.36,22,-8,31,0.00
2013-1-9,48.0,38.5,25.0,41.0,31.0,19.0,93,75,61,30.40,30.12,20,6,31,0.00
2013-1-10,46.0,42.0,28.0,34.0,23.3,18.0,68,48,33,30.55,30.16,22,9,31,0.00
2013-1-11,46.0,37.0,23.0,45.0,31.0,18.0,93,79,65,30.54,30.17,13,3,20,0.00
2013-1-12,46.0,45.4,43.0,45.0,44.4,43.0,100,95,93,30.18,30.08,15,5,24,0.00
2013-1-13,52.0,46.1,43.0,50.0,45.3,41.0,100,97,93,30.18,30.05,7,3,0,0.00
2013-1-14,55.0,50.3,39.0,54.0,45.5,28.0,100,85,52,30.27,29.99,14,7,18,0.00
2013-1-15,39.0,37.4,36.0,34.0,30.2,27.0,93,75,64,30.33,30.21,12,3,18,0.00
2013-1-16,43.0,37.4,36.0,39.0,35.0,28.0,93,90,69,30.23,29.78,12,4,0,0.00
2013-1-17,43.0,37.9,34.0,36.0,30.0,19.0,93,73,52,30.09,29.91,13,-10,17,0.00
2013-1-18,34.0,25.6,16.0,23.0,7.5,-2.0,79,47,27,30.52,30.03,22,8,31,0.00
2013-1-19,46.0,39.5,16.0,37.0,27.2,5.0,70,61,49,30.45,29.98,29,15,44,0.00
2013-1-20,52.0,46.0,34.0,39.0,29.0,10.0,75,53,26,29.99,29.69,23,14,32,0.00
2013-1-21,34.0,28.9,27.0,27.0,14.4,5.0,92,56,33,30.12,29.81,10,3,22,0.00
2013-1-22,27.0,21.7,16.0,25.0,4.0,-9.0,92,48,28,30.14,29.80,20,11,30,0.00
2013-1-23,18.0,16.1,12.0,-2.0,-6.3,-8.0,47,36,31,30.22,30.13,21,11,30,0.00
2013-1-24,21.0,14.7,0.0,0.0,-5.1,-11.0,65,42,27,30.32,30.12,23,11,32,0.00
2013-1-25,25.0,19.8,16.0,16.0,3.3,-4.0,79,48,37,30.38,30.05,18,7,25,0.00
2013-1-26,25.0,20.9,16.0,18.0,7.9,-2.0,85,58,32,30.32,30.03,15,9,24,0.00
2013-1-27,32.0,23.5,16.0,9.0,3.7,0.0,62,43,26,30.50,30.32,16,8,24,0.00
2013-1-28,39.0,27.1,12.0,36.0,19.3,1.0,93,73,51,30.49,30.02,8,2,0,0.00
2013-1-29,43.0,36.1,30.0,39.0,33.0,27.0,93,87,75,30.21,30.01,8,1,0,0.00
2013-1-30,55.0,51.2,41.0,54.0,50.2,39.0,100,96,86,30.15,29.52,20,10,36,0.00
2013-1-31,55.0,43.7,32.0,54.0,23.2,10.0,93,46,30,29.72,29.16,30,19,45,0.00
2013-2-1,32.0,29.1,27.0,12.0,7.9,0.0,49,40,30,30.18,29.72,23,13,32,0.00
2013-2-2,30.0,26.9,21.0,21.0,9.7,1.0,79,48,33,30.30,30.09,17,-33,24,0.00
2013-2-3,32.0,26.6,19.0,21.0,17.9,12.0,85,70,54,30.09,29.76,9,2,0,0.00
2013-2-4,30.0,27.8,27.0,21.0,11.3,5.0,79,50,33,29.99,29.78,18,-5,28,0.00
2013-2-5,32.0,28.5,27.0,28.0,21.8,9.0,92,76,42,30.01,29.91,12,-24,0,0.00
2013-2-6,39.0,32.9,27.0,28.0,22.6,1.0,92,68,28,30.34,29.92,14,6,24,0.00
2013-2-7,32.0,28.3,23.0,19.0,7.1,-2.0,59,40,27,30.52,30.34,12,6,17,0.00
2013-2-8,37.0,34.7,30.0,36.0,29.4,18.0,100,82,59,30.41,29.48,28,16,41,0.00
2013-2-9,30.0,25.3,21.0,28.0,18.0,9.0,92,74,53,30.26,29.53,25,15,35,0.00
2013-2-10,32.0,21.7,10.0,16.0,8.9,3.0,85,58,39,30.46,30.24,17,-24,24,0.00
2013-2-11,48.0,38.2,12.0,46.0,36.4,7.0,100,92,78,30.37,29.67,14,5,27,0.00
2013-2-12,45.0,40.2,34.0,43.0,32.2,25.0,100,74,56,29.95,29.67,22,10,35,0.00
2013-2-13,39.0,33.8,23.0,30.0,25.3,19.0,86,71,51,29.94,29.67,12,-68,0,0.00
2013-2-14,43.0,34.6,27.0,34.0,27.8,21.0,93,77,48,30.03,29.71,10,4,0,0.00
2013-2-15,46.0,39.0,25.0,41.0,35.2,23.0,100,87,75,30.06,29.95,16,6,27,0.00
2013-2-16,37.0,34.9,30.0,36.0,30.5,27.0,93,84,74,29.95,29.67,16,8,25,0.00
2013-2-17,30.0,25.9,19.0,27.0,12.9,3.0,92,59,36,29.83,29.52,28,19,41,0.00
2013-2-18,36.0,24.1,19.0,12.0,7.2,3.0,57,48,37,30.23,29.83,27,14,39,0.00
2013-2-19,48.0,39.6,18.0,45.0,32.7,10.0,100,76,46,30.24,29.65,15,-9,27,0.00
2013-2-20,43.0,33.3,27.0,41.0,17.3,7.0,93,52,34,29.92,29.65,25,14,33,0.00
2013-2-21,36.0,28.5,25.0,14.0,10.7,9.0,58,47,37,30.23,29.89,24,15,35,0.00
2013-2-22,39.0,32.9,27.0,27.0,21.0,14.0,69,61,51,30.38,30.23,16,7,23,0.00
2013-2-23,41.0,37.6,28.0,37.0,33.6,21.0,100,83,64,30.33,29.80,15,9,24,0.00
2013-2-24,41.0,37.4,34.0,39.0,36.0,30.0,100,94,86,29.91,29.68,16,11,23,0.00
2013-2-25,43.0,35.2,30.0,34.0,27.6,25.0,93,74,52,30.26,29.91,13,4,16,0.00
2013-2-26,43.0,37.2,32.0,36.0,30.6,27.0,93,77,60,30.33,30.03,15,6,22,0.00
2013-2-27,46.0,43.6,37.0,46.0,42.1,36.0,100,94,80,30.03,29.55,30,14,44,0.00
2013-2-28,46.0,40.0,34.0,43.0,36.2,30.0,93,87,75,29.64,29.55,10,2,15,0.00
2013-3-1,46.0,40.3,36.0,37.0,31.7,25.0,93,73,45,29.73,29.56,15,6,24,0.00
2013-3-2,39.0,36.9,36.0,28.0,25.2,23.0,69,61,51,29.74,29.67,13,7,20,0.00
2013-3-3,36.0,33.8,30.0,25.0,21.4,18.0,69,61,47,29.69,29.63,16,9,21,0.00
2013-3-4,43.0,34.6,30.0,21.0,19.5,18.0,68,54,41,29.82,29.68,23,14,30,0.00
2013-3-5,46.0,37.7,28.0,30.0,23.5,19.0,74,57,42,30.05,29.81,17,8,27,0.00
2013-3-6,43.0,37.0,27.0,36.0,32.0,21.0,86,81,70,30.03,29.86,28,16,44,0.00
2013-3-7,43.0,36.9,34.0,34.0,28.9,27.0,86,73,56,29.98,29.83,29,20,44,0.00
2013-3-8,34.0,32.5,32.0,30.0,30.0,30.0,92,90,86,29.96,29.92,18,13,28,0.00
2013-3-9,52.0,41.5,28.0,36.0,27.7,21.0,92,61,29,30.35,30.20,13,4,18,0.00
2013-3-10,41.0,33.7,25.0,36.0,30.2,21.0,93,86,80,30.41,30.33,12,-72,15,0.00
2013-3-11,50.0,39.8,27.0,45.0,36.7,25.0,100,88,76,30.35,30.15,13,3,0,0.00
2013-3-12,52.0,48.9,43.0,50.0,46.5,41.0,100,92,81,30.17,29.75,17,10,30,0.00
2013-3-13,48.0,43.3,36.0,48.0,30.0,21.0,100,61,34,29.85,29.78,17,10,28,0.00
2013-3-14,41.0,34.9,30.0,28.0,14.9,7.0,69,44,31,29.91,29.82,21,14,33,0.00
2013-3-15,43.0,36.0,28.0,27.0,15.3,7.0,60,42,25,29.95,29.73,23,-2,31,0.00
2013-3-16,39.0,35.1,32.0,28.0,21.0,10.0,86,57,32,29.90,29.76,16,-30,24,0.00
2013-3-17,37.0,33.6,27.0,28.0,13.6,3.0,86,47,23,30.31,29.90,18,7,29,0.00
2013-3-18,36.0,31.9,27.0,30.0,13.8,5.0,86,47,33,30.44,30.10,23,10,30,0.00
2013-3-19,41.0,37.8,34.0,39.0,35.9,30.0,100,92,80,30.11,29.60,21,13,33,0.00
2013-3-20,43.0,35.9,27.0,34.0,20.7,16.0,86,56,33,29.86,29.75,23,9,37,0.00
2013-3-21,37.0,33.2,27.0,27.0,23.2,19.0,86,67,51,29.84,29.62,15,5,23,0.00
2013-3-22,41.0,34.4,28.0,25.0,16.2,10.0,80,47,32,29.84,29.68,20,12,29,0.00
2013-3-23,45.0,39.2,34.0,21.0,19.3,16.0,55,45,33,29.88,29.74,24,13,36,0.00
2013-3-24,45.0,38.6,34.0,28.0,20.9,16.0,69,49,36,29.91,29.73,18,7,27,0.00
2013-3-25,43.0,37.5,30.0,34.0,28.2,21.0,93,69,56,29.77,29.44,22,10,33,0.00
2013-3-26,50.0,39.7,27.0,34.0,26.6,18.0,93,61,34,29.84,29.51,15,5,23,0.00
2013-3-27,54.0,41.8,25.0,27.0,22.9,18.0,79,49,27,29.91,29.82,20,6,30,0.00
2013-3-28,48.0,43.1,37.0,34.0,29.4,25.0,69,58,48,30.07,29.91,14,7,21,0.00
2013-3-29,55.0,47.1,39.0,34.0,29.7,25.0,70,52,30,30.11,30.03,15,-21,23,0.00
2013-3-30,55.0,46.8,39.0,32.0,27.3,18.0,69,49,22,30.14,30.07,18,-6,25,0.00
2013-3-31,52.0,41.2,25.0,45.0,31.8,-99.9,93,72,57,30.15,29.67,15,6,20,0.00
2013-4-1,54.0,46.6,39.0,46.0,41.9,21.0,100,83,55,29.86,29.63,24,-3,31,0.00
2013-4-2,43.0,37.3,30.0,25.0,13.0,7.0,63,37,23,30.04,29.86,24,12,35,0.00
2013-4-3,45.0,38.6,34.0,16.0,11.0,9.0,40,32,24,30.25,30.04,24,14,33,0.00
2013-4-4,45.0,38.5,30.0,32.0,20.6,10.0,75,49,32,30.38,30.15,17,10,31,0.00
2013-4-5,57.0,45.1,39.0,45.0,33.2,18.0,87,66,24,30.15,29.69,16,6,28,0.00
2013-4-6,46.0,39.0,27.0,25.0,14.9,3.0,68,39,16,30.35,29.92,22,10,31,0.00
2013-4-7,52.0,39.3,21.0,43.0,31.0,16.0,87,72,46,30.34,30.08,17,-8,29,0.00
2013-4-8,66.0,52.6,46.0,48.0,43.1,39.0,93,71,39,30.11,30.01,14,5,18,0.00
2013-4-9,79.0,59.5,46.0,50.0,43.7,36.0,93,63,22,30.08,29.91,23,8,38,0.00
2013-4-10,66.0,51.4,46.0,50.0,44.7,39.0,93,78,52,29.99,29.84,20,6,24,0.00
2013-4-11,57.0,48.8,45.0,52.0,44.2,37.0,100,84,70,30.10,29.81,17,7,27,0.00
2013-4-12,45.0,42.7,39.0,39.0,36.4,32.0,93,80,61,30.10,29.72,27,14,46,0.00
2013-4-13,54.0,45.1,39.0,43.0,37.0,34.0,93,75,46,29.98,29.72,15,-6,20,0.00
2013-4-14,57.0,49.9,45.0,43.0,33.0,25.0,87,55,30,30.23,29.98,22,9,32,0.00
2013-4-15,50.0,43.4,36.0,37.0,31.3,25.0,86,62,45,30.42,30.23,10,-156,17,0.00
2013-4-16,55.0,47.5,36.0,48.0,42.1,30.0,93,82,66,30.42,30.18,17,8,30,0.00
2013-4-17,66.0,55.6,43.0,52.0,42.6,34.0,93,65,29,30.33,30.14,15,6,23,0.00
2013-4-18,55.0,47.3,34.0,46.0,36.7,28.0,93,68,37,30.41,30.17,20,7,29,0.00
2013-4-19,63.0,55.8,52.0,59.0,54.6,46.0,100,96,81,30.17,29.76,20,10,32,0.00
2013-4-20,57.0,52.2,45.0,57.0,43.5,27.0,100,76,37,30.24,29.70,24,10,38,0.00
2013-4-21,52.0,43.1,36.0,28.0,22.4,18.0,64,44,25,30.67,30.22,20,10,31,0.00
2013-4-22,52.0,42.0,28.0,37.0,30.1,21.0,86,63,34,30.69,30.53,21,11,35,0.00
2013-4-23,48.0,44.0,41.0,45.0,39.2,32.0,93,83,65,30.54,30.03,20,13,30,0.00
2013-4-24,59.0,49.0,45.0,48.0,42.9,39.0,100,80,58,30.05,29.93,22,13,29,0.00
2013-4-25,63.0,52.4,36.0,52.0,38.1,27.0,100,62,25,30.29,29.92,16,8,23,0.00
2013-4-26,57.0,46.3,30.0,43.0,34.8,27.0,86,65,47,30.41,30.29,10,3,16,0.00
2013-4-27,57.0,47.2,36.0,48.0,41.6,30.0,93,81,50,30.43,30.35,10,4,15,0.00
2013-4-28,57.0,47.9,34.0,50.0,38.5,-99.9,100,75,35,30.37,30.27,12,3,16,0.00
2013-4-29,57.0,53.3,50.0,46.0,43.5,39.0,81,69,50,30.30,30.25,13,4,21,0.00
2013-4-30,61.0,51.5,37.0,45.0,33.0,23.0,87,53,26,30.37,30.25,14,5,22,0.00
2013-5-1,61.0,47.6,34.0,46.0,38.8,25.0,87,71,58,30.50,30.36,14,4,20,0.00
2013-5-2,63.0,50.7,34.0,52.0,40.2,30.0,93,69,48,30.48,30.37,10,4,20,0.00
2013-5-3,59.0,51.3,39.0,46.0,40.2,36.0,86,66,47,30.48,30.39,17,9,24,0.00
2013-5-4,57.0,47.2,36.0,46.0,39.0,30.0,93,73,58,30.39,30.29,17,7,27,0.00
2013-5-5,54.0,46.6,37.0,43.0,39.8,30.0,87,77,58,30.31,30.27,17,6,22,0.00
2013-5-6,61.0,49.6,37.0,48.0,42.8,34.0,93,77,59,30.30,30.19,12,3,17,0.00
2013-5-7,64.0,54.6,43.0,57.0,51.0,39.0,100,88,72,30.20,30.14,9,3,0,0.00
2013-5-8,63.0,58.2,54.0,61.0,55.7,52.0,100,91,87,30.17,30.05,25,8,31,0.00
2013-5-9,63.0,55.3,52.0,63.0,54.3,50.0,100,96,93,30.06,29.90,13,4,16,0.00
2013-5-10,75.0,59.0,45.0,63.0,52.1,-99.9,100,81,49,30.00,29.94,15,-109,18,0.00
2013-5-11,63.0,58.5,55.0,61.0,56.6,54.0,100,93,82,29.97,29.73,22,8,33,0.00
2013-5-12,68.0,59.9,54.0,61.0,47.7,-99.9,100,71,31,29.89,29.67,21,-33,29,0.00
2013-5-13,55.0,52.4,48.0,34.0,28.5,25.0,50,40,30,30.07,29.89,16,9,27,0.00
2013-5-14,59.0,50.4,45.0,41.0,30.8,23.0,76,48,28,30.10,30.04,15,8,23,0.00
2013-5-15,59.0,50.0,34.0,54.0,44.2,30.0,93,80,58,30.11,29.73,17,6,24,0.00
2013-5-16,72.0,56.7,48.0,61.0,37.4,-99.9,100,75,43,29.82,29.71,20,-9,28,0.00
2013-5-17,70.0,59.3,46.0,52.0,41.6,-99.9,87,60,32,30.23,29.82,15,4,20,0.00
2013-5-18,64.0,56.9,45.0,52.0,48.7,41.0,93,74,55,30.34,30.23,14,-9,20,0.00
2013-5-19,59.0,54.5,46.0,55.0,51.5,43.0,100,88,76,30.39,30.22,13,4,18,0.00
2013-5-20,70.0,62.1,55.0,66.0,60.3,55.0,100,93,77,30.22,29.99,14,7,18,0.00
2013-5-21,73.0,64.2,55.0,70.0,61.3,55.0,100,91,78,30.00,29.90,17,6,24,0.00
2013-5-22,70.0,60.2,54.0,64.0,58.9,54.0,100,95,82,29.99,29.91,10,6,17,0.00
2013-5-23,66.0,62.9,61.0,64.0,61.7,59.0,100,95,88,29.98,29.86,20,12,28,0.00
2013-5-24,68.0,60.2,50.0,66.0,59.1,48.0,100,96,81,29.86,29.71,15,6,28,0.00
2013-5-25,50.0,47.4,46.0,48.0,44.3,37.0,100,89,70,29.89,29.80,22,12,35,0.00
2013-5-26,63.0,53.9,43.0,39.0,37.7,36.0,75,55,38,30.19,29.87,22,-56,35,0.00
2013-5-27,70.0,56.0,37.0,48.0,39.0,34.0,86,55,26,30.23,30.16,21,-103,30,0.00
2013-5-28,66.0,55.6,43.0,57.0,49.4,37.0,100,81,48,30.26,30.18,10,4,16,0.00
2013-5-29,70.0,60.2,55.0,63.0,57.8,55.0,100,91,77,30.18,30.05,16,8,23,0.00
2013-5-30,81.0,70.6,57.0,70.0,62.9,55.0,93,77,61,30.14,30.08,12,5,21,0.00
2013-5-31,84.0,73.1,59.0,72.0,63.5,55.0,94,73,51,30.14,30.04,20,6,22,0.00
2013-6-1,75.0,68.0,61.0,64.0,62.2,57.0,93,82,68,30.05,29.98,20,9,25,0.00
2013-6-2,72.0,65.8,63.0,64.0,60.6,-99.9,93,86,73,29.99,29.86,22,14,31,0.00
2013-6-3,66.0,63.0,61.0,64.0,62.0,59.0,100,96,88,29.90,29.83,14,8,24,0.00
2013-6-4,72.0,63.3,54.0,66.0,46.6,39.0,100,56,37,30.10,29.85,17,9,27,0.00
2013-6-5,68.0,60.2,48.0,52.0,47.6,41.0,93,65,37,30.23,30.10,12,4,0,0.00
2013-6-6,68.0,60.7,46.0,63.0,55.0,43.0,100,82,59,30.20,30.07,12,5,21,0.00
2013-6-7,68.0,59.7,57.0,68.0,58.0,55.0,100,95,82,30.07,29.69,18,10,35,0.00
2013-6-8,72.0,65.1,55.0,66.0,62.5,55.0,100,91,73,30.05,29.53,15,9,29,0.00
2013-6-9,75.0,67.3,57.0,64.0,58.6,55.0,100,75,53,30.20,30.05,13,4,20,0.00
2013-6-10,70.0,62.2,55.0,64.0,59.5,54.0,100,90,77,30.20,29.92,15,5,22,0.00
2013-6-11,75.0,67.6,61.0,72.0,65.0,61.0,100,92,73,29.92,29.63,18,-5,28,0.00
2013-6-12,73.0,67.9,55.0,63.0,53.6,48.0,88,60,46,29.86,29.66,24,10,35,0.00
2013-6-13,63.0,58.3,48.0,59.0,53.5,46.0,93,85,72,29.85,29.51,20,7,31,0.00
2013-6-14,68.0,60.2,54.0,57.0,53.5,50.0,100,79,59,29.84,29.51,21,11,31,0.00
2013-6-15,77.0,67.8,61.0,59.0,54.2,46.0,88,65,33,29.99,29.84,14,8,18,0.00
2013-6-16,73.0,65.2,52.0,64.0,59.0,48.0,100,81,56,29.99,29.80,16,6,25,0.00
2013-6-17,81.0,70.5,59.0,68.0,63.4,57.0,100,79,54,29.95,29.85,14,-30,22,0.00
2013-6-18,75.0,66.2,57.0,68.0,62.2,55.0,100,87,73,29.95,29.86,10,3,16,0.00
2013-6-19,73.0,65.0,55.0,59.0,55.1,48.0,93,72,40,30.18,29.87,13,7,20,0.00
2013-6-20,73.0,63.7,48.0,61.0,52.9,46.0,100,70,46,30.29,30.17,14,5,20,0.00
2013-6-21,72.0,70.8,70.0,59.0,55.6,54.0,68,59,53,30.31,30.28,14,12,24,0.00
2013-6-22,75.0,70.0,64.0,64.0,61.8,55.0,93,75,50,30.29,30.19,13,8,20,0.00
2013-6-23,79.0,70.7,64.0,70.0,66.2,63.0,100,86,65,30.22,30.11,18,8,27,0.00
2013-6-24,90.0,77.5,70.0,75.0,70.6,63.0,100,81,52,30.12,29.97,13,7,18,0.00
2013-6-25,88.0,75.7,64.0,73.0,68.1,61.0,93,77,58,30.00,29.81,14,6,21,0.00
2013-6-26,84.0,76.4,70.0,72.0,68.3,66.0,94,76,61,29.86,29.78,13,4,21,0.00
2013-6-27,79.0,71.9,68.0,73.0,68.8,66.0,100,90,78,29.86,29.69,12,3,0,0.00
2013-6-28,73.0,71.2,70.0,72.0,70.2,68.0,100,96,88,29.70,29.55,15,9,25,0.00
2013-6-29,77.0,71.7,70.0,73.0,69.6,66.0,100,93,78,29.76,29.53,15,7,24,0.00
2013-6-30,73.0,71.2,68.0,72.0,68.9,64.0,100,93,73,29.98,29.76,13,7,22,0.00
2013-7-1,75.0,71.6,70.0,73.0,70.7,68.0,100,97,88,30.12,29.98,15,5,23,0.00
2013-7-2,75.0,72.8,70.0,73.0,71.3,70.0,100,94,88,30.23,30.12,14,8,23,0.00
2013-7-3,79.0,73.7,72.0,73.0,71.7,70.0,100,92,78,30.28,30.22,14,10,21,0.00
2013-7-4,82.0,76.6,73.0,75.0,72.5,72.0,100,86,74,30.28,30.20,20,10,27,0.00
2013-7-5,82.0,77.1,73.0,73.0,71.7,70.0,94,82,69,30.23,30.13,14,-10,24,0.00
2013-7-6,90.0,79.5,73.0,75.0,72.2,70.0,94,78,55,30.15,30.04,15,-4,21,0.00
2013-7-7,88.0,79.4,73.0,75.0,71.8,70.0,88,77,62,30.07,29.96,16,6,23,0.00
2013-7-8,86.0,76.9,72.0,72.0,67.7,-99.9,88,76,58,30.07,29.96,17,7,22,0.00
2013-7-9,84.0,75.7,70.0,73.0,70.4,66.0,94,83,65,30.10,30.04,13,4,18,0.00
2013-7-10,81.0,73.8,72.0,73.0,68.9,-99.9,94,88,78,30.07,29.85,16,8,24,0.00
2013-7-11,79.0,73.8,70.0,73.0,71.7,68.0,94,91,83,29.93,29.84,13,5,24,0.00
2013-7-12,75.0,71.3,68.0,70.0,66.1,64.0,94,84,69,30.16,29.93,15,6,27,0.00
2013-7-13,75.0,71.7,68.0,73.0,70.4,64.0,100,95,88,30.32,30.16,9,4,0,0.00
2013-7-14,88.0,78.6,73.0,77.0,73.2,72.0,100,84,58,30.35,30.25,12,5,17,0.00
2013-7-15,91.0,81.3,73.0,75.0,72.7,70.0,94,77,52,30.26,30.14,10,3,15,0.00
2013-7-16,91.0,81.8,72.0,72.0,70.4,68.0,94,69,46,30.18,30.13,10,4,15,0.00
2013-7-17,86.0,78.0,70.0,75.0,70.5,66.0,94,78,58,30.20,30.09,12,4,0,0.00
2013-7-18,95.0,83.1,75.0,73.0,72.5,70.0,88,71,46,30.09,29.98,12,4,16,0.00
2013-7-19,90.0,81.5,77.0,79.0,74.2,72.0,88,79,66,30.00,29.83,18,9,27,0.00
2013-7-20,88.0,80.0,75.0,75.0,70.8,-99.9,94,76,62,29.85,29.74,21,10,31,0.00
2013-7-21,82.0,76.0,72.0,72.0,65.7,61.0,88,71,50,30.00,29.85,10,3,17,0.00
2013-7-22,79.0,73.8,72.0,73.0,71.7,68.0,94,92,78,30.00,29.86,10,4,15,0.00
2013-7-23,82.0,76.7,73.0,77.0,73.1,70.0,100,89,69,29.86,29.60,18,-3,27,0.00
2013-7-24,86.0,76.9,66.0,75.0,68.5,61.0,94,76,54,29.90,29.62,12,3,20,0.00
2013-7-25,73.0,65.2,63.0,61.0,57.6,54.0,93,78,60,30.06,29.92,13,8,18,0.00
2013-7-26,72.0,66.3,63.0,66.0,62.1,57.0,93,87,77,30.07,29.95,14,7,21,0.00
2013-7-27,77.0,72.5,68.0,70.0,66.0,64.0,94,81,65,30.10,30.00,15,6,21,0.00
2013-7-28,81.0,73.0,70.0,72.0,67.7,66.0,94,84,61,30.03,29.97,10,2,16,0.00
2013-7-29,81.0,74.8,66.0,73.0,69.4,63.0,94,84,61,30.09,29.97,12,4,15,0.00
2013-7-30,79.0,71.3,61.0,63.0,57.2,54.0,93,62,44,30.15,30.08,15,5,20,0.00
2013-7-31,79.0,70.7,57.0,66.0,58.9,54.0,93,68,47,30.17,30.08,15,3,21,0.00
2013-8-1,77.0,68.2,61.0,68.0,61.7,57.0,93,80,65,30.09,29.89,14,3,20,0.00
2013-8-2,81.0,73.9,68.0,70.0,65.5,59.0,94,77,47,29.93,29.81,15,-13,20,0.00
2013-8-3,77.0,71.4,66.0,68.0,64.6,63.0,93,79,65,29.94,29.86,13,-6,16,0.00
2013-8-4,79.0,70.2,59.0,66.0,58.0,54.0,93,68,44,29.94,29.84,13,4,18,0.00
2013-8-5,75.0,66.9,57.0,55.0,51.5,45.0,82,59,35,30.07,29.94,15,5,22,0.00
2013-8-6,75.0,66.2,54.0,63.0,56.2,50.0,93,71,49,30.17,30.07,13,4,17,0.00
2013-8-7,75.0,70.0,54.0,66.0,60.7,48.0,93,72,56,30.20,30.14,15,9,22,0.00
2013-8-8,79.0,73.6,70.0,70.0,67.7,64.0,94,82,65,30.15,30.07,18,9,31,0.00
2013-8-9,75.0,73.3,72.0,73.0,71.2,70.0,94,92,88,30.09,29.84,20,9,27,0.00
2013-8-10,82.0,75.7,70.0,72.0,65.3,57.0,94,71,45,30.06,29.85,14,-14,20,0.00
2013-8-11,75.0,68.6,55.0,63.0,54.7,50.0,82,62,41,30.12,30.05,12,-9,15,0.00
2013-8-12,75.0,69.8,63.0,70.0,65.4,57.0,94,86,69,30.08,29.96,7,0,0,0.00
2013-8-13,72.0,67.3,63.0,72.0,65.8,61.0,100,94,88,29.97,29.71,8,1,0,0.00
2013-8-14,73.0,68.1,63.0,66.0,55.7,52.0,100,66,46,30.02,29.73,18,7,29,0.00
2013-8-15,75.0,60.5,57.0,57.0,38.2,-99.9,82,58,33,30.17,30.02,15,5,20,0.00
2013-8-16,77.0,66.2,57.0,64.0,53.2,-99.9,88,68,41,30.23,30.15,13,4,16,0.00
2013-8-17,79.0,70.1,54.0,64.0,56.7,52.0,93,65,41,30.30,30.23,8,2,0,0.00
2013-8-18,73.0,64.1,55.0,63.0,55.3,-99.9,93,76,53,30.30,30.14,9,2,0,0.00
2013-8-19,81.0,64.9,57.0,66.0,51.3,-99.9,93,78,50,30.14,30.04,10,3,15,0.00
2013-8-20,82.0,72.4,61.0,68.0,62.1,57.0,93,72,42,30.15,30.05,15,4,20,0.00
2013-8-21,86.0,73.3,61.0,73.0,65.2,57.0,94,78,42,30.18,30.09,14,4,18,0.00
2013-8-22,79.0,73.2,70.0,72.0,70.4,68.0,94,91,73,30.09,29.90,12,-26,20,0.00
2013-8-23,81.0,72.9,63.0,70.0,63.1,55.0,100,73,41,30.11,29.87,15,5,22,0.00
2013-8-24,75.0,65.7,52.0,57.0,54.0,46.0,87,68,43,30.37,30.12,13,-12,16,0.00
2013-8-25,81.0,70.3,50.0,64.0,55.6,-99.9,93,63,36,30.40,30.27,13,7,20,0.00
2013-8-26,75.0,71.6,70.0,70.0,63.5,57.0,94,76,64,30.26,29.95,17,9,24,0.00
2013-8-27,79.0,71.5,70.0,70.0,69.2,66.0,100,93,73,29.95,29.83,16,6,24,0.00
2013-8-28,77.0,73.7,70.0,70.0,69.7,68.0,94,87,78,29.93,29.89,12,6,16,0.00
2013-8-29,75.0,68.7,64.0,70.0,64.9,61.0,100,88,73,30.07,29.93,13,6,18,0.00
2013-8-30,75.0,68.0,61.0,68.0,62.8,55.0,94,83,77,30.05,29.90,14,6,21,0.00
2013-9-4,79.0,68.4,55.0,64.0,59.0,54.0,100,73,47,29.99,29.87,16,6,23,0.00
2013-9-5,75.0,67.8,57.0,66.0,57.3,46.0,93,71,41,30.14,29.93,12,4,17,0.00
2013-9-6,68.0,60.3,48.0,52.0,45.3,41.0,87,59,39,30.25,30.14,9,3,0,0.00
2013-9-7,73.0,65.1,45.0,57.0,50.5,43.0,93,61,35,30.14,29.94,16,7,23,0.00
2013-9-8,79.0,69.5,63.0,63.0,56.5,-99.9,88,65,42,30.09,29.82,13,8,21,0.00
2013-9-9,66.0,60.5,46.0,54.0,45.2,39.0,87,58,42,30.27,30.10,10,3,0,0.00
2013-9-10,73.0,69.1,59.0,70.0,63.2,52.0,94,82,67,30.21,30.10,20,9,32,0.00
2013-9-11,82.0,75.5,72.0,75.0,70.9,70.0,94,86,73,30.14,30.04,13,-13,20,0.00
2013-9-12,77.0,72.8,70.0,72.0,70.5,66.0,100,92,83,30.04,29.73,20,-23,28,0.00
2013-9-13,77.0,70.1,63.0,70.0,65.7,55.0,100,86,65,29.80,29.64,13,4,18,0.00
2013-9-14,66.0,61.0,52.0,55.0,52.0,46.0,87,72,59,30.10,29.80,10,6,15,0.00
2013-9-15,66.0,53.6,46.0,54.0,45.2,-99.9,93,77,59,30.21,30.11,13,2,17,0.00
2013-9-16,70.0,61.8,52.0,63.0,54.2,46.0,93,77,56,30.22,30.06,15,-18,22,0.00
2013-9-17,63.0,53.5,41.0,45.0,38.2,36.0,81,57,41,30.43,30.22,18,9,29,0.00
2013-9-18,52.0,38.4,37.0,48.0,35.6,34.0,93,87,86,30.36,30.33,0,0,0,0.00
2013-9-19,72.0,61.0,45.0,57.0,51.4,43.0,93,72,43,30.21,30.11,13,5,18,0.00
2013-9-20,73.0,64.2,46.0,61.0,55.3,43.0,93,74,53,30.12,30.05,13,4,17,0.00
2013-9-21,73.0,66.2,48.0,68.0,61.8,46.0,94,86,73,30.04,29.76,14,6,23,0.00
2013-9-22,72.0,65.6,57.0,68.0,55.9,-99.9,100,74,52,29.89,29.68,18,8,28,0.00
2013-9-23,63.0,55.9,50.0,45.0,43.3,41.0,76,62,48,30.03,29.88,15,6,20,0.00
2013-9-24,66.0,55.6,46.0,50.0,44.0,39.0,76,65,48,30.04,29.86,17,5,22,0.00
2013-9-25,70.0,56.8,43.0,54.0,46.0,39.0,93,69,37,29.97,29.90,12,2,21,0.00
2013-9-26,64.0,59.7,45.0,55.0,50.5,43.0,93,72,55,30.13,29.95,8,2,0,0.00
2013-9-27,66.0,56.7,45.0,54.0,50.4,43.0,93,80,59,30.27,30.12,12,2,17,0.00
2013-9-28,72.0,61.8,46.0,57.0,52.1,45.0,100,72,46,30.33,30.27,10,4,0,0.00
2013-9-29,64.0,55.1,45.0,57.0,46.6,-99.9,100,77,55,30.27,30.11,12,-10,16,0.00
2013-9-30,68.0,60.9,52.0,57.0,54.7,48.0,100,80,56,30.11,30.01,8,-45,0,0.00
2013-10-1,63.0,62.2,59.0,57.0,56.2,55.0,87,82,77,29.95,29.94,5,2,0,0.00
2013-10-2,79.0,64.5,54.0,64.0,57.5,52.0,93,79,53,30.01,29.91,13,3,0,0.00
2013-10-3,75.0,64.5,50.0,59.0,52.6,45.0,93,69,33,30.13,30.01,9,2,0,0.00
2013-10-4,75.0,63.5,54.0,66.0,58.4,50.0,93,84,69,30.10,30.02,10,2,0,0.00
2013-10-5,72.0,63.9,55.0,63.0,60.1,54.0,100,87,73,30.13,30.05,8,2,0,0.00
2013-10-6,66.0,61.8,55.0,64.0,59.5,54.0,100,91,82,30.17,30.10,13,6,21,0.00
2013-10-7,73.0,68.8,64.0,72.0,66.3,59.0,100,92,82,30.10,29.89,16,-2,28,0.00
2013-10-8,66.0,60.2,52.0,59.0,46.5,41.0,87,61,42,30.34,29.94,14,-125,22,0.00
2013-10-9,63.0,57.8,55.0,48.0,46.4,41.0,76,66,54,30.42,30.33,18,8,30,0.00
2013-10-18,66.0,62.7,46.0,63.0,52.2,41.0,100,69,48,29.96,29.69,18,-3,28,0.00
2013-10-19,66.0,57.6,37.0,57.0,46.8,36.0,93,69,42,30.01,29.79,9,3,0,0.00
2013-10-20,61.0,55.7,37.0,59.0,41.5,-99.9,93,62,38,30.07,29.75,15,7,23,0.00
2013-10-21,64.0,57.0,37.0,50.0,42.3,34.0,87,59,36,30.16,30.04,13,6,17,0.00
2013-10-22,66.0,59.3,48.0,55.0,49.6,45.0,87,70,52,30.03,29.77,16,6,23,0.00
2013-10-23,54.0,47.3,43.0,46.0,38.3,34.0,87,71,50,29.83,29.63,7,-50,0,0.00
2013-10-24,54.0,48.2,41.0,39.0,32.0,27.0,81,55,34,29.96,29.72,18,-5,28,0.00
2013-10-25,52.0,46.3,34.0,36.0,29.8,25.0,74,53,37,30.22,29.96,18,8,25,0.00
2013-10-26,55.0,50.9,34.0,39.0,34.3,28.0,86,54,40,30.21,29.94,22,13,35,0.00
2013-10-27,57.0,50.4,36.0,36.0,30.3,-99.9,69,48,35,30.11,29.87,15,-28,23,0.00
2013-10-28,61.0,49.9,32.0,37.0,31.4,-99.9,86,54,33,30.33,30.12,16,6,22,0.00
2013-10-29,54.0,46.4,30.0,36.0,30.0,25.0,80,53,37,30.43,30.33,9,-8,0,0.00
2013-10-30,59.0,48.2,30.0,48.0,40.9,25.0,87,76,58,30.38,30.22,9,2,0,0.00
2013-10-31,64.0,57.3,43.0,61.0,53.2,39.0,93,86,77,30.26,29.88,13,6,28,0.00
2013-11-1,66.0,63.7,61.0,63.0,59.6,55.0,93,86,77,29.89,29.60,23,13,35,0.00
2013-11-5,52.0,42.1,30.0,37.0,31.8,25.0,86,67,50,30.69,30.54,10,3,16,0.00
2013-11-6,61.0,50.8,34.0,54.0,44.6,30.0,93,79,59,30.54,30.13,12,3,17,0.00
2013-11-7,63.0,57.3,45.0,63.0,53.3,34.0,100,87,61,30.12,29.73,15,-1,25,0.00
2013-11-8,50.0,45.4,43.0,34.0,28.3,25.0,65,51,39,30.18,29.90,17,10,28,0.00
2013-11-9,52.0,43.3,39.0,37.0,25.3,-99.9,64,50,42,30.28,30.07,14,6,18,0.00
2013-11-10,61.0,52.6,48.0,39.0,35.5,28.0,61,52,35,30.06,29.79,23,11,35,0.00
2013-11-11,54.0,49.0,45.0,39.0,30.3,25.0,58,49,40,30.18,29.98,20,11,30,0.00
2013-11-12,54.0,39.3,32.0,37.0,25.8,16.0,86,59,47,30.24,29.94,18,-8,28,0.00
2013-11-13,37.0,32.7,28.0,19.0,15.1,10.0,59,48,34,30.33,30.23,16,9,24,0.00
2013-11-14,48.0,40.5,30.0,25.0,18.8,16.0,59,42,27,30.28,30.14,20,-8,27,0.00
2013-11-15,55.0,48.3,36.0,43.0,34.8,23.0,86,60,39,30.27,30.20,16,-12,22,0.00
2013-11-17,61.0,55.4,37.0,59.0,52.8,36.0,100,91,82,30.32,29.89,16,6,22,0.00
2013-11-18,63.0,59.1,54.0,61.0,50.9,37.0,100,76,50,29.87,29.63,20,9,30,0.00
2013-11-19,54.0,44.8,36.0,39.0,25.2,19.0,58,46,36,30.31,29.73,23,15,31,0.00
2013-11-20,43.0,35.3,23.0,19.0,16.0,10.0,73,46,26,30.61,30.33,14,9,22,0.00
2013-11-21,48.0,40.9,25.0,34.0,29.9,18.0,80,65,52,30.64,30.43,8,1,0,0.00
2013-11-22,55.0,50.8,43.0,52.0,46.2,36.0,93,84,71,30.43,29.89,17,-10,23,0.00
2013-11-23,54.0,44.5,37.0,50.0,25.7,-99.9,87,51,35,29.97,29.86,20,11,32,0.00
2013-11-24,34.0,27.5,25.0,9.0,3.3,-2.0,42,35,27,30.30,29.90,23,18,39,0.00
2013-11-25,36.0,27.8,23.0,21.0,10.1,3.0,59,47,38,30.46,30.30,18,8,30,0.00
2013-11-26,54.0,40.7,36.0,50.0,25.5,18.0,93,56,39,30.36,29.95,14,5,22,0.00
2013-11-27,63.0,52.0,39.0,63.0,50.2,28.0,100,93,60,29.95,29.27,28,14,47,0.00
2013-11-28,39.0,32.5,23.0,30.0,16.0,10.0,74,51,37,30.49,29.62,21,10,31,0.00
2013-11-29,37.0,31.2,25.0,21.0,17.4,10.0,74,57,43,30.74,30.48,10,-42,15,0.00
2013-11-30,43.0,30.4,21.0,28.0,14.7,-99.9,74,54,43,30.77,30.44,8,-104,0,0.00
2013-12-1,55.0,46.2,37.0,52.0,40.4,28.0,100,80,56,30.44,30.03,12,5,17,0.00
2013-12-2,48.0,40.0,30.0,46.0,37.2,28.0,100,90,75,30.03,29.91,7,1,0,0.00
2013-12-3,48.0,40.7,34.0,43.0,36.7,28.0,100,86,65,30.00,29.88,10,5,15,0.00
2013-12-4,52.0,39.2,27.0,41.0,32.5,25.0,93,77,53,30.18,30.00,7,1,0,0.00
2013-12-5,57.0,53.9,41.0,57.0,52.6,37.0,100,95,86,30.18,29.98,10,4,16,0.00
2013-12-6,57.0,48.6,39.0,57.0,47.6,37.0,100,96,86,30.12,29.92,15,8,21,0.00
2013-12-7,43.0,36.8,34.0,37.0,27.4,-99.9,100,74,47,30.49,30.07,17,10,24,0.00
2013-12-8,37.0,32.2,27.0,27.0,19.5,18.0,74,59,51,30.60,30.43,10,2,17,0.00
2013-12-9,52.0,41.6,34.0,52.0,39.5,27.0,100,92,74,30.44,29.91,16,9,27,0.00
2013-12-17,43.0,29.1,16.0,43.0,24.1,5.0,100,82,57,30.25,29.89,15,6,21,0.00
2013-12-18,36.0,30.2,25.0,25.0,20.9,18.0,92,70,51,30.17,29.87,15,-11,22,0.00
2013-12-19,46.0,38.5,28.0,34.0,25.1,18.0,69,58,48,30.18,30.04,18,-11,31,0.00
2013-12-20,52.0,46.1,32.0,46.0,38.0,25.0,93,73,53,30.15,30.01,23,10,23,0.00
2013-12-21,55.0,51.4,48.0,54.0,45.7,-99.9,100,85,76,30.05,29.95,17,11,27,0.00
2013-12-22,61.0,55.9,54.0,57.0,55.0,54.0,100,96,82,30.01,29.88,21,15,33,0.00
2013-12-23,59.0,53.9,46.0,57.0,53.0,46.0,100,96,87,30.04,29.91,13,7,20,0.00
2013-12-30,36.0,28.4,21.0,23.0,12.0,5.0,59,49,42,30.17,30.02,17,13,22,0.00
2013-12-31,32.0,24.3,18.0,18.0,10.0,3.0,63,53,42,30.24,30.08,14,-24,24,0.00
2014-1-1,30.0,27.2,23.0,19.0,10.7,7.0,68,49,39,30.42,30.24,15,-5,21,0.00
2014-1-2,34.0,29.6,21.0,30.0,24.4,18.0,92,81,59,30.32,29.67,20,13,32,0.00